Time;durP1;ratioP1;P1;durP2;ratioP2;P2;SDS_P1;SDS_P2;PMS_P1;PMS_P2;Temp;Humidity;BMP_temperature;BMP_pressure;BME280_temperature;BME280_humidity;BME280_pressure;Samples;Min_cycle;Max_cycle;Signal;HPM_P1;HPM_P2
2021/12/10 00:01:34;;;;;;;49.07;26.53;;;5.20;97.90;;;;;;5054958;28;20041;-60
2021/12/10 00:04:00;;;;;;;50.00;26.47;;;5.10;98.90;;;;;;5053527;28;20083;-60
2021/12/10 00:06:31;;;;;;;51.50;27.47;;;5.20;98.70;;;;;;5037132;28;20033;-62
2021/12/10 00:09:00;;;;;;;49.37;26.70;;;5.20;97.60;;;;;;5053680;28;20047;-61
2021/12/10 00:11:37;;;;;;;53.27;27.90;;;5.20;98.50;;;;;;5054041;28;20033;-62
2021/12/10 00:14:04;;;;;;;58.60;29.00;;;5.20;98.20;;;;;;5047604;28;20021;-61
2021/12/10 00:16:30;;;;;;;47.60;26.77;;;5.20;98.20;;;;;;5044824;28;20028;-61
2021/12/10 00:19:09;;;;;;;50.53;28.63;;;5.30;98.10;;;;;;5048948;28;20087;-60
2021/12/10 00:21:41;;;;;;;51.10;29.43;;;5.20;98.00;;;;;;5034991;28;20056;-61
2021/12/10 00:24:09;;;;;;;51.90;26.87;;;5.30;98.30;;;;;;5044538;28;20074;-61
2021/12/10 00:26:38;;;;;;;57.90;28.93;;;5.40;98.20;;;;;;5053148;28;20032;-61
2021/12/10 00:29:06;;;;;;;54.47;28.70;;;5.40;97.80;;;;;;5053691;28;20047;-61
2021/12/10 00:34:16;;;;;;;51.07;27.70;;;5.30;97.90;;;;;;5046508;28;20160;-61
2021/12/10 00:36:43;;;;;;;54.57;28.03;;;5.40;98.10;;;;;;5046316;28;20029;-61
2021/12/10 00:39:14;;;;;;;59.60;30.20;;;5.40;97.70;;;;;;5053728;28;20025;-61
2021/12/10 00:41:40;;;;;;;57.60;29.57;;;5.20;97.90;;;;;;5054952;28;20062;-61
2021/12/10 00:44:06;;;;;;;55.33;27.43;;;5.20;98.30;;;;;;5045607;28;20017;-62
2021/12/10 00:46:33;;;;;;;55.50;29.53;;;5.20;98.20;;;;;;5044088;28;20032;-62
2021/12/10 00:48:59;;;;;;;57.47;29.67;;;5.20;98.40;;;;;;5053351;28;20060;-61
2021/12/10 00:51:24;;;;;;;56.37;30.87;;;5.30;98.60;;;;;;5054509;28;20427;-61
2021/12/10 00:53:52;;;;;;;59.67;29.97;;;5.30;98.40;;;;;;5050974;28;20035;-61
2021/12/10 00:56:19;;;;;;;56.77;29.80;;;5.40;98.40;;;;;;5060278;28;20107;-60
2021/12/10 00:58:44;;;;;;;55.27;28.33;;;5.20;98.30;;;;;;5051797;28;20025;-60
2021/12/10 01:01:15;;;;;;;50.17;27.73;;;5.20;98.20;;;;;;5034679;28;20133;-60
2021/12/10 01:03:47;;;;;;;57.13;29.83;;;5.30;98.50;;;;;;5037801;28;20036;-60
2021/12/10 01:06:16;;;;;;;58.80;30.27;;;5.20;98.70;;;;;;5057750;28;20029;-60
2021/12/10 01:08:45;;;;;;;48.93;27.53;;;5.30;98.90;;;;;;5070912;28;20516;-60
2021/12/10 01:11:22;;;;;;;55.87;29.20;;;5.40;98.60;;;;;;5034569;28;20029;-59
2021/12/10 01:13:52;;;;;;;52.83;28.03;;;5.40;98.10;;;;;;5037137;28;20170;-59
2021/12/10 01:27:11;;;;;;;51.50;28.50;;;5.10;98.70;;;;;;5034019;28;20440;-60
2021/12/10 01:29:42;;;;;;;53.13;27.90;;;5.10;99.30;;;;;;5036450;28;20029;-60
2021/12/10 01:32:13;;;;;;;52.13;26.30;;;5.20;99.30;;;;;;5035515;28;20335;-60
2021/12/10 01:34:39;;;;;;;52.20;27.87;;;5.20;99.40;;;;;;5046486;28;20029;-60
2021/12/10 01:37:06;;;;;;;52.80;27.87;;;5.20;99.90;;;;;;5036988;28;20021;-60
2021/12/10 01:39:38;;;;;;;47.57;26.37;;;5.20;99.90;;;;;;5051230;28;20513;-60
2021/12/10 01:42:27;;;;;;;42.80;25.10;;;5.30;99.90;;;;;;5034345;28;20041;-59
2021/12/10 01:44:55;;;;;;;43.70;24.47;;;5.20;99.90;;;;;;5063688;28;20060;-60
2021/12/10 01:47:33;;;;;;;42.03;24.07;;;5.20;99.90;;;;;;5053561;28;20021;-59
2021/12/10 01:50:00;;;;;;;43.23;24.27;;;5.30;99.90;;;;;;5031004;28;20087;-59
2021/12/10 01:52:27;;;;;;;46.07;25.13;;;5.40;99.90;;;;;;5037091;28;20029;-60
2021/12/10 01:54:56;;;;;;;35.00;22.07;;;5.30;99.80;;;;;;5052411;28;20033;-60
2021/12/10 01:57:25;;;;;;;40.33;23.20;;;5.30;99.90;;;;;;5052107;28;20487;-60
2021/12/10 01:59:52;;;;;;;44.93;27.83;;;5.30;99.20;;;;;;5055718;28;20020;-60
2021/12/10 02:02:23;;;;;;;47.03;25.97;;;5.10;99.90;;;;;;5071841;28;20043;-60
2021/12/10 02:04:48;;;;;;;47.70;26.57;;;5.10;99.80;;;;;;5057799;28;20407;-60
2021/12/10 02:07:18;;;;;;;45.47;25.23;;;5.20;99.90;;;;;;5052575;28;20037;-60
2021/12/10 02:09:44;;;;;;;50.20;26.87;;;5.30;99.90;;;;;;5050596;28;20029;-60
2021/12/10 02:12:10;;;;;;;49.17;25.77;;;5.20;99.90;;;;;;5051544;28;20087;-60
2021/12/10 02:14:58;;;;;;;45.17;26.13;;;5.20;99.90;;;;;;5045762;28;20033;-60
2021/12/10 02:17:25;;;;;;;49.87;26.87;;;5.10;99.90;;;;;;5052547;28;20055;-60
2021/12/10 02:19:51;;;;;;;47.07;25.13;;;5.20;99.90;;;;;;5050394;28;20079;-61
2021/12/10 02:22:17;;;;;;;45.57;24.67;;;5.10;99.90;;;;;;5051939;28;20044;-60
2021/12/10 02:24:43;;;;;;;50.40;26.30;;;5.10;99.90;;;;;;5048222;28;20053;-60
2021/12/10 02:27:08;;;;;;;43.40;25.27;;;5.10;99.90;;;;;;5053035;28;20033;-61
2021/12/10 02:29:37;;;;;;;43.90;24.47;;;5.10;99.90;;;;;;5051708;28;20017;-60
2021/12/10 02:32:04;;;;;;;43.23;23.37;;;5.20;99.90;;;;;;5032890;28;20021;-61
2021/12/10 02:34:30;;;;;;;40.10;22.43;;;5.20;99.90;;;;;;5022792;28;20033;-60
2021/12/10 02:36:56;;;;;;;42.40;22.80;;;5.20;99.90;;;;;;5052534;28;20441;-60
2021/12/10 02:39:24;;;;;;;39.30;23.37;;;5.30;99.90;;;;;;5044091;28;20064;-60
2021/12/10 02:41:50;;;;;;;39.90;22.20;;;5.20;99.90;;;;;;5031342;28;20038;-61
2021/12/10 02:44:41;;;;;;;37.60;23.97;;;5.20;99.90;;;;;;5043028;28;20029;-61
2021/12/10 02:47:07;;;;;;;36.27;21.87;;;5.20;99.90;;;;;;5033083;28;20025;-61
2021/12/10 02:49:34;;;;;;;42.90;22.77;;;5.20;99.90;;;;;;5046246;28;20036;-60
2021/12/10 02:51:59;;;;;;;37.10;21.83;;;5.20;99.90;;;;;;5053023;28;20033;-60
2021/12/10 02:54:34;;;;;;;35.13;20.87;;;5.20;99.90;;;;;;5063023;28;20036;-61
2021/12/10 02:57:03;;;;;;;33.17;18.95;;;5.20;99.90;;;;;;5071300;28;20025;-61
2021/12/10 02:59:29;;;;;;;35.13;21.40;;;5.20;99.90;;;;;;5037189;28;20052;-60
2021/12/10 03:01:55;;;;;;;33.20;19.53;;;5.20;99.90;;;;;;5034889;28;20123;-60
2021/12/10 03:04:22;;;;;;;34.83;19.10;;;5.10;99.90;;;;;;5061979;28;20393;-60
2021/12/10 03:06:53;;;;;;;32.00;18.80;;;5.10;99.90;;;;;;5053056;28;20036;-60
2021/12/10 03:09:22;;;;;;;30.33;18.47;;;4.90;99.90;;;;;;5051618;28;20025;-60
2021/12/10 03:11:49;;;;;;;29.47;18.53;;;4.80;99.90;;;;;;5052570;28;20060;-60
2021/12/10 03:14:20;;;;;;;31.70;18.60;;;4.70;99.90;;;;;;5042738;28;20071;-60
2021/12/10 03:16:48;;;;;;;28.20;18.43;;;4.70;99.90;;;;;;5032857;28;20083;-61
2021/12/10 03:19:14;;;;;;;26.83;16.83;;;4.70;99.90;;;;;;5033947;28;20438;-61
2021/12/10 03:21:44;;;;;;;29.30;17.90;;;4.60;99.90;;;;;;5044730;28;20048;-61
2021/12/10 03:24:12;;;;;;;28.10;17.13;;;4.60;99.90;;;;;;5059074;28;20446;-60
2021/12/10 03:26:37;;;;;;;25.63;16.93;;;4.40;94.80;;;;;;5071422;28;20037;-61
2021/12/10 03:29:04;;;;;;;28.50;16.83;;;4.40;92.10;;;;;;5045313;28;20029;-60
2021/12/10 03:31:29;;;;;;;25.87;14.90;;;4.40;90.70;;;;;;5032404;28;20033;-60
2021/12/10 03:33:57;;;;;;;25.33;15.67;;;4.50;90.80;;;;;;5032591;28;20091;-61
2021/12/10 03:36:23;;;;;;;27.20;16.77;;;4.40;90.20;;;;;;5050927;28;20488;-60
2021/12/10 03:38:50;;;;;;;24.83;15.77;;;4.50;90.50;;;;;;5043721;28;20121;-60
2021/12/10 03:41:16;;;;;;;27.07;15.67;;;4.50;90.30;;;;;;5031717;28;20037;-60
2021/12/10 03:43:45;;;;;;;22.00;14.63;;;4.60;90.20;;;;;;5047914;28;20363;-60
2021/12/10 03:46:11;;;;;;;25.60;15.47;;;4.60;88.80;;;;;;5035127;28;20025;-61
2021/12/10 03:48:41;;;;;;;23.33;14.53;;;4.60;89.70;;;;;;5037168;28;20027;-60
2021/12/10 03:51:09;;;;;;;21.10;14.37;;;4.60;89.20;;;;;;5036012;28;20013;-61
2021/12/10 03:53:36;;;;;;;22.77;15.03;;;4.60;88.70;;;;;;5037689;28;20064;-60
2021/12/10 03:56:09;;;;;;;22.43;15.23;;;4.70;89.00;;;;;;5037644;28;20116;-60
2021/12/10 03:58:34;;;;;;;25.60;15.90;;;4.60;88.80;;;;;;5036061;28;20029;-60
2021/12/10 04:01:04;;;;;;;24.20;15.50;;;4.50;89.00;;;;;;5034407;28;20095;-61
2021/12/10 04:04:07;;;;;;;24.30;15.70;;;4.60;89.30;;;;;;5035878;28;20022;-60
2021/12/10 04:06:35;;;;;;;21.20;13.60;;;4.70;89.30;;;;;;5035647;28;20033;-60
2021/12/10 04:09:02;;;;;;;22.83;13.27;;;4.60;87.50;;;;;;5043534;28;20386;-60
2021/12/10 04:11:28;;;;;;;19.33;13.03;;;4.80;88.10;;;;;;5054221;28;20032;-61
2021/12/10 04:13:54;;;;;;;23.83;13.87;;;4.70;87.60;;;;;;5054671;28;20025;-61
2021/12/10 04:16:23;;;;;;;22.37;14.07;;;4.70;87.70;;;;;;5052143;28;20036;-60
2021/12/10 04:18:54;;;;;;;22.83;14.13;;;4.80;87.70;;;;;;5055427;28;20028;-61
2021/12/10 04:21:20;;;;;;;20.77;13.43;;;4.70;83.90;;;;;;5037354;28;20045;-60
2021/12/10 04:23:47;;;;;;;23.77;15.63;;;4.70;88.30;;;;;;5043252;28;20033;-61
2021/12/10 04:26:16;;;;;;;22.90;14.33;;;4.80;87.90;;;;;;5038376;28;20037;-61
2021/12/10 04:28:48;;;;;;;20.37;13.60;;;4.80;86.60;;;;;;5035154;28;20508;-61
2021/12/10 04:31:14;;;;;;;24.20;13.93;;;4.70;83.80;;;;;;5049016;28;20395;-61
2021/12/10 04:33:40;;;;;;;21.13;13.90;;;4.70;85.50;;;;;;5043775;28;20108;-61
2021/12/10 04:36:07;;;;;;;21.07;14.13;;;4.70;86.80;;;;;;5057511;28;20108;-61
2021/12/10 04:38:34;;;;;;;18.50;13.20;;;4.70;87.00;;;;;;5073627;28;20043;-61
2021/12/10 04:41:04;;;;;;;24.30;14.80;;;4.70;86.40;;;;;;5047353;28;20390;-61
2021/12/10 04:43:32;;;;;;;26.40;15.30;;;4.60;85.20;;;;;;5055132;28;20040;-61
2021/12/10 04:45:58;;;;;;;21.97;14.07;;;4.70;86.10;;;;;;5041259;28;20026;-61
2021/12/10 04:48:26;;;;;;;24.23;15.03;;;4.60;85.60;;;;;;5050780;28;20075;-61
2021/12/10 04:51:04;;;;;;;23.67;14.70;;;4.60;87.30;;;;;;5034470;28;20030;-61
2021/12/10 04:53:29;;;;;;;26.83;15.90;;;4.80;88.20;;;;;;5040859;28;20028;-61
2021/12/10 04:55:56;;;;;;;24.33;14.73;;;4.80;87.60;;;;;;5040237;28;20418;-61
2021/12/10 04:58:21;;;;;;;23.20;15.27;;;4.70;86.30;;;;;;5058571;28;20373;-60
2021/12/10 05:00:49;;;;;;;24.97;14.33;;;4.80;88.00;;;;;;5060975;28;20036;-61
2021/12/10 05:03:15;;;;;;;24.70;15.17;;;4.80;88.00;;;;;;5057993;28;20033;-61
2021/12/10 05:05:43;;;;;;;21.67;13.93;;;4.90;87.70;;;;;;5042714;28;20384;-61
2021/12/10 05:08:09;;;;;;;19.30;11.67;;;5.00;87.70;;;;;;5034267;28;20017;-61
2021/12/10 05:10:36;;;;;;;19.67;10.57;;;5.00;85.30;;;;;;5037196;28;20029;-61
2021/12/10 05:13:03;;;;;;;16.03;9.27;;;5.00;83.60;;;;;;5055879;28;20405;-61
2021/12/10 05:15:32;;;;;;;17.93;10.53;;;5.00;82.60;;;;;;5047280;28;20031;-61
2021/12/10 05:17:59;;;;;;;17.63;10.63;;;5.00;81.40;;;;;;5041748;28;20033;-61
2021/12/10 05:20:33;;;;;;;14.97;9.87;;;5.00;81.30;;;;;;5052727;28;20040;-61
2021/12/10 05:22:58;;;;;;;18.20;10.75;;;5.00;81.20;;;;;;5054348;28;20041;-61
2021/12/10 05:25:29;;;;;;;20.17;11.00;;;5.00;82.20;;;;;;5043615;28;20094;-61
2021/12/10 05:27:56;;;;;;;18.53;11.70;;;5.10;81.00;;;;;;5047570;28;20026;-61
2021/12/10 05:30:27;;;;;;;17.97;11.30;;;5.00;82.00;;;;;;5036067;28;20082;-60
2021/12/10 05:36:14;;;;;;;20.77;12.03;;;5.00;80.60;;;;;;5039451;28;20399;-61
2021/12/10 05:38:40;;;;;;;20.87;13.00;;;5.00;82.40;;;;;;5043635;28;20037;-61
2021/12/10 05:41:10;;;;;;;21.60;13.40;;;4.90;82.50;;;;;;5050965;28;20080;-61
2021/12/10 05:43:38;;;;;;;22.33;13.30;;;5.00;82.70;;;;;;5050471;28;20107;-61
2021/12/10 05:46:04;;;;;;;22.07;12.77;;;5.00;82.60;;;;;;5041740;28;20033;-61
2021/12/10 05:48:30;;;;;;;24.90;14.57;;;5.00;82.70;;;;;;5034497;28;20030;-61
2021/12/10 05:50:57;;;;;;;20.27;13.27;;;5.00;83.10;;;;;;5052190;28;20033;-61
2021/12/10 05:53:23;;;;;;;21.93;13.80;;;5.10;82.60;;;;;;5065122;28;20036;-61
2021/12/10 05:55:50;;;;;;;20.53;13.70;;;5.10;82.80;;;;;;5052367;28;20029;-61
2021/12/10 05:58:18;;;;;;;19.67;12.30;;;5.10;82.70;;;;;;5033240;28;20029;-61
2021/12/10 06:00:54;;;;;;;19.60;11.43;;;5.10;81.70;;;;;;5041657;28;20395;-61
2021/12/10 06:03:20;;;;;;;19.07;11.90;;;5.00;81.00;;;;;;5063785;28;20031;-61
2021/12/10 06:05:46;;;;;;;19.33;11.50;;;5.10;81.50;;;;;;5059797;28;20033;-61
2021/12/10 06:08:13;;;;;;;16.80;10.57;;;5.10;80.50;;;;;;5032626;28;20117;-61
2021/12/10 06:10:48;;;;;;;17.27;11.27;;;5.30;81.30;;;;;;5039712;28;20083;-61
2021/12/10 06:13:14;;;;;;;15.90;9.55;;;5.30;77.20;;;;;;5050916;28;20017;-61
2021/12/10 06:15:40;;;;;;;13.83;9.13;;;5.20;79.30;;;;;;5051826;28;20032;-61
2021/12/10 06:18:06;;;;;;;17.57;10.30;;;5.20;79.70;;;;;;5053537;28;20108;-61
2021/12/10 06:20:36;;;;;;;14.50;9.23;;;5.30;80.50;;;;;;5047510;28;20053;-61
2021/12/10 06:23:05;;;;;;;14.07;8.43;;;5.20;78.40;;;;;;5044925;28;20135;-61
2021/12/10 06:25:32;;;;;;;13.97;9.27;;;5.20;77.70;;;;;;5045049;28;20043;-61
2021/12/10 06:27:58;;;;;;;13.17;8.83;;;5.20;78.10;;;;;;5051531;28;20479;-61
2021/12/10 06:30:29;;;;;;;10.77;7.93;;;5.20;77.90;;;;;;5051405;28;20024;-61
2021/12/10 06:32:55;;;;;;;12.87;8.80;;;5.30;78.10;;;;;;5050377;28;20055;-61
2021/12/10 06:35:23;;;;;;;14.07;9.83;;;5.20;77.50;;;;;;5053025;28;20387;-61
2021/12/10 06:37:51;;;;;;;14.40;10.13;;;5.30;78.50;;;;;;5042703;28;20100;-61
2021/12/10 06:40:18;;;;;;;18.90;11.40;;;5.20;77.80;;;;;;5065888;28;20108;-61
2021/12/10 06:42:44;;;;;;;17.37;13.73;;;5.10;77.90;;;;;;5043751;28;20044;-61
2021/12/10 06:45:12;;;;;;;19.50;12.67;;;5.20;79.20;;;;;;5069617;28;20036;-61
2021/12/10 06:47:40;;;;;;;22.97;13.10;;;5.10;79.60;;;;;;5043953;28;20479;-61
2021/12/10 06:50:07;;;;;;;21.63;14.17;;;5.10;79.40;;;;;;5047127;28;20443;-61
2021/12/10 06:52:33;;;;;;;21.67;13.37;;;5.20;80.10;;;;;;5051396;28;20025;-61
2021/12/10 06:54:59;;;;;;;23.57;13.63;;;5.20;80.30;;;;;;5052581;28;20033;-61
2021/12/10 06:57:25;;;;;;;20.00;13.10;;;5.10;79.60;;;;;;5051048;28;20441;-61
2021/12/10 06:59:52;;;;;;;22.53;11.37;;;5.20;78.40;;;;;;5051364;28;20063;-61
2021/12/10 07:02:18;;;;;;;19.87;12.60;;;5.10;78.20;;;;;;5033735;28;20394;-61
2021/12/10 07:04:44;;;;;;;20.70;11.47;;;5.00;78.10;;;;;;5053531;28;20436;-61
2021/12/10 07:07:11;;;;;;;17.07;10.87;;;5.00;78.60;;;;;;5048965;28;20104;-61
2021/12/10 07:09:38;;;;;;;20.17;12.23;;;5.00;77.00;;;;;;5040560;28;20131;-61
2021/12/10 07:12:05;;;;;;;21.30;12.57;;;5.00;77.60;;;;;;5039347;28;20032;-61
2021/12/10 07:14:31;;;;;;;21.90;12.77;;;5.10;78.00;;;;;;5043681;28;20025;-61
2021/12/10 07:16:58;;;;;;;22.27;12.13;;;5.10;78.90;;;;;;5046435;28;20479;-62
2021/12/10 07:19:26;;;;;;;20.47;11.93;;;5.00;78.00;;;;;;5032213;28;20068;-61
2021/12/10 07:21:52;;;;;;;16.50;11.03;;;5.00;78.60;;;;;;5048375;28;20461;-61
2021/12/10 07:24:19;;;;;;;17.00;11.47;;;5.00;77.80;;;;;;5044588;28;20056;-61
2021/12/10 07:26:45;;;;;;;18.47;12.87;;;5.00;77.50;;;;;;5047545;28;20517;-61
2021/12/10 07:29:11;;;;;;;20.57;11.47;;;5.00;78.20;;;;;;5047365;28;20755;-61
2021/12/10 07:31:39;;;;;;;15.10;10.93;;;5.00;76.60;;;;;;5047691;28;20037;-61
2021/12/10 07:34:05;;;;;;;12.47;9.13;;;5.10;77.30;;;;;;5053786;28;20032;-61
2021/12/10 07:36:31;;;;;;;14.63;9.10;;;5.10;77.40;;;;;;5055085;28;20025;-61
2021/12/10 07:38:56;;;;;;;15.30;9.20;;;5.20;76.70;;;;;;5052813;28;20079;-61
2021/12/10 07:41:23;;;;;;;16.33;9.03;;;5.10;75.30;;;;;;5048360;28;20040;-61
2021/12/10 07:43:49;;;;;;;13.93;9.17;;;5.10;75.10;;;;;;5039975;28;20029;-62
2021/12/10 07:46:15;;;;;;;13.10;7.90;;;5.10;74.40;;;;;;5044058;28;20025;-61
2021/12/10 07:48:43;;;;;;;11.00;8.03;;;5.10;73.00;;;;;;5054819;28;20030;-61
2021/12/10 07:51:15;;;;;;;12.43;7.47;;;5.10;74.70;;;;;;5043498;28;20033;-62
2021/12/10 07:53:42;;;;;;;11.90;8.23;;;5.10;74.30;;;;;;5039808;28;20025;-61
2021/12/10 07:56:11;;;;;;;10.67;7.43;;;5.10;74.40;;;;;;5042949;28;20021;-61
2021/12/10 07:58:42;;;;;;;9.97;6.47;;;5.10;74.10;;;;;;5055722;28;20024;-61
2021/12/10 08:01:15;;;;;;;11.23;7.57;;;5.10;72.00;;;;;;5054548;28;20394;-61
2021/12/10 08:03:41;;;;;;;10.67;6.87;;;5.10;73.50;;;;;;5055071;28;20135;-61
2021/12/10 08:06:06;;;;;;;14.00;7.97;;;5.10;71.10;;;;;;5052174;28;20120;-61
2021/12/10 08:08:33;;;;;;;14.50;7.70;;;5.10;72.70;;;;;;5035571;28;20037;-61
2021/12/10 08:10:59;;;;;;;11.07;7.50;;;5.00;71.50;;;;;;5047400;28;20537;-61
2021/12/10 08:13:25;;;;;;;13.33;7.90;;;5.00;70.40;;;;;;5035621;28;20056;-61
2021/12/10 08:15:51;;;;;;;16.53;9.53;;;4.70;72.00;;;;;;5039400;28;20495;-61
2021/12/10 08:18:17;;;;;;;14.73;9.07;;;4.70;73.70;;;;;;5055162;28;20025;-61
2021/12/10 08:20:43;;;;;;;15.40;10.17;;;4.90;72.90;;;;;;5053956;28;20045;-61
2021/12/10 08:23:09;;;;;;;15.67;10.53;;;4.90;75.80;;;;;;5044192;28;20415;-61
2021/12/10 08:25:38;;;;;;;16.20;10.67;;;4.90;75.70;;;;;;5050985;28;20471;-61
2021/12/10 08:28:05;;;;;;;15.83;10.93;;;5.00;76.50;;;;;;5054943;28;20103;-61
2021/12/10 08:30:33;;;;;;;15.47;10.13;;;5.00;74.60;;;;;;5066841;28;20058;-61
2021/12/10 08:32:59;;;;;;;16.47;10.23;;;5.10;76.00;;;;;;5053797;28;20112;-61
2021/12/10 08:35:29;;;;;;;13.50;9.93;;;5.10;75.60;;;;;;5054218;28;20474;-61
2021/12/10 08:37:56;;;;;;;15.37;9.57;;;5.20;76.30;;;;;;5041474;28;20029;-61
2021/12/10 08:40:28;;;;;;;13.10;9.43;;;5.20;75.60;;;;;;5054237;28;20056;-61
2021/12/10 08:42:54;;;;;;;11.43;8.77;;;5.20;76.10;;;;;;5054729;28;20075;-60
2021/12/10 08:45:23;;;;;;;12.67;8.93;;;5.10;75.20;;;;;;5053283;28;20125;-60
2021/12/10 08:47:51;;;;;;;13.37;9.10;;;5.30;76.30;;;;;;5042115;28;20025;-60
2021/12/10 08:50:22;;;;;;;12.67;9.40;;;5.50;76.30;;;;;;5052983;28;20033;-61
2021/12/10 08:52:50;;;;;;;11.90;8.17;;;5.40;74.20;;;;;;5052774;28;20025;-61
2021/12/10 08:55:17;;;;;;;11.90;9.20;;;5.40;75.40;;;;;;5048032;28;20093;-61
2021/12/10 08:57:44;;;;;;;17.23;9.70;;;5.50;75.10;;;;;;5054387;28;20021;-61
2021/12/10 09:00:11;;;;;;;12.80;10.20;;;5.30;74.00;;;;;;5053902;28;20039;-61
2021/12/10 09:02:38;;;;;;;14.93;10.10;;;5.30;74.90;;;;;;5054219;28;20045;-61
2021/12/10 09:05:08;;;;;;;18.83;11.27;;;5.30;74.40;;;;;;5047340;28;20107;-61
2021/12/10 09:07:34;;;;;;;15.00;11.90;;;5.40;76.20;;;;;;5061189;28;20487;-61
2021/12/10 09:10:00;;;;;;;14.20;10.80;;;5.30;75.50;;;;;;5051994;28;20027;-61
2021/12/10 09:12:27;;;;;;;20.60;10.53;;;5.30;75.60;;;;;;5054093;28;20047;-61
2021/12/10 09:14:56;;;;;;;13.37;9.63;;;5.10;76.50;;;;;;5052772;28;20027;-61
2021/12/10 09:17:25;;;;;;;13.07;10.47;;;5.00;77.80;;;;;;5071216;28;20451;-61
2021/12/10 09:19:53;;;;;;;16.17;10.70;;;5.10;78.40;;;;;;5046934;28;20391;-62
2021/12/10 09:22:19;;;;;;;13.47;10.30;;;5.00;79.80;;;;;;5034058;28;20088;-61
2021/12/10 09:24:46;;;;;;;13.90;9.13;;;5.10;82.00;;;;;;5035453;28;20106;-61
2021/12/10 09:27:14;;;;;;;13.10;8.57;;;5.00;85.40;;;;;;5049894;28;20463;-61
2021/12/10 09:29:43;;;;;;;10.47;7.70;;;5.10;86.90;;;;;;5043531;28;20033;-61
2021/12/10 09:32:14;;;;;;;11.17;7.90;;;5.00;87.80;;;;;;5036346;28;20030;-61
2021/12/10 09:34:40;;;;;;;14.23;9.13;;;4.90;87.70;;;;;;5045215;28;20025;-61
2021/12/10 09:37:07;;;;;;;9.00;5.77;;;5.00;89.10;;;;;;5035739;28;20041;-61
2021/12/10 09:39:33;;;;;;;7.93;5.17;;;4.90;89.10;;;;;;5040808;28;20036;-61
2021/12/10 09:42:00;;;;;;;7.67;4.70;;;5.00;89.60;;;;;;5046202;28;20479;-61
2021/12/10 09:44:26;;;;;;;7.73;4.43;;;5.00;90.10;;;;;;5052545;28;20025;-61
2021/12/10 09:46:54;;;;;;;8.63;4.40;;;5.00;92.20;;;;;;5053588;28;20029;-61
2021/12/10 09:49:24;;;;;;;7.27;4.67;;;5.00;93.00;;;;;;5048507;28;20053;-61
2021/12/10 09:51:54;;;;;;;8.70;5.37;;;5.10;92.80;;;;;;5034126;28;20026;-61
2021/12/10 09:54:21;;;;;;;8.63;5.77;;;5.00;92.50;;;;;;5032945;28;20025;-61
2021/12/10 09:56:54;;;;;;;7.10;4.60;;;5.00;92.10;;;;;;5033331;28;20029;-61
2021/12/10 09:59:21;;;;;;;8.17;4.70;;;5.10;92.20;;;;;;5033676;28;20029;-61
2021/12/10 10:01:51;;;;;;;7.67;4.83;;;5.20;92.30;;;;;;5031872;28;20042;-61
2021/12/10 10:04:20;;;;;;;6.17;4.57;;;5.20;92.20;;;;;;5051435;28;20052;-61
2021/12/10 10:06:51;;;;;;;6.87;4.17;;;5.20;91.70;;;;;;5053236;28;20108;-61
2021/12/10 10:09:20;;;;;;;6.77;3.83;;;5.10;92.00;;;;;;5051147;28;20045;-61
2021/12/10 10:11:51;;;;;;;7.17;4.10;;;5.10;92.20;;;;;;5057376;28;20029;-61
2021/12/10 10:14:17;;;;;;;6.77;4.00;;;5.20;93.00;;;;;;5033666;28;20025;-61
2021/12/10 10:16:44;;;;;;;4.63;3.33;;;5.20;92.80;;;;;;5072070;28;20078;-61
2021/12/10 10:19:12;;;;;;;6.70;3.70;;;5.20;93.00;;;;;;5067384;28;20049;-61
2021/12/10 10:21:44;;;;;;;6.90;3.73;;;5.20;93.20;;;;;;5051035;28;20048;-61
2021/12/10 10:24:11;;;;;;;5.30;3.20;;;5.10;93.20;;;;;;5052011;28;20044;-61
2021/12/10 10:26:42;;;;;;;6.23;3.07;;;5.10;92.40;;;;;;5052150;28;20093;-61
2021/12/10 10:29:19;;;;;;;5.57;3.20;;;5.00;93.70;;;;;;5052102;28;20104;-61
2021/12/10 10:31:53;;;;;;;5.33;2.90;;;5.10;94.30;;;;;;5037599;28;20022;-61
2021/12/10 10:34:21;;;;;;;5.23;2.70;;;5.10;93.30;;;;;;5039718;28;20021;-61
2021/12/10 10:36:48;;;;;;;6.57;3.20;;;5.10;93.70;;;;;;5052956;28;20068;-61
2021/12/10 10:39:18;;;;;;;5.60;3.00;;;5.10;94.90;;;;;;5049690;28;20486;-61
2021/12/10 10:41:49;;;;;;;4.93;2.57;;;5.20;95.50;;;;;;5045581;28;20040;-61
2021/12/10 10:44:17;;;;;;;3.87;2.17;;;5.10;93.80;;;;;;5050440;28;20485;-61
2021/12/10 10:46:45;;;;;;;4.87;3.13;;;5.00;94.00;;;;;;5052709;28;20486;-61
2021/12/10 10:49:40;;;;;;;5.20;2.67;;;5.10;94.40;;;;;;5050546;28;20082;-61
2021/12/10 10:52:33;;;;;;;6.03;2.83;;;5.00;93.80;;;;;;5033141;28;20026;-61
2021/12/10 10:55:11;;;;;;;7.37;3.73;;;5.00;94.80;;;;;;5035185;28;20084;-61
2021/12/10 10:57:47;;;;;;;4.83;4.07;;;5.00;95.30;;;;;;5036224;28;20483;-61
2021/12/10 11:00:19;;;;;;;6.37;3.87;;;5.00;94.00;;;;;;5039234;28;20029;-62
2021/12/10 11:02:53;;;;;;;6.97;4.50;;;5.00;94.90;;;;;;5052054;28;20041;-62
2021/12/10 11:05:24;;;;;;;4.57;3.50;;;5.20;95.00;;;;;;5045783;28;20542;-62
2021/12/10 11:07:53;;;;;;;7.17;4.77;;;5.40;94.60;;;;;;5039421;28;20276;-62
2021/12/10 11:10:28;;;;;;;8.37;5.30;;;5.40;92.90;;;;;;5053161;28;20059;-62
2021/12/10 11:13:06;;;;;;;10.60;4.82;;;5.30;92.20;;;;;;5056533;28;20390;-62
2021/12/10 11:15:31;;;;;;;7.63;5.10;;;5.40;92.70;;;;;;5044140;28;20037;-61
2021/12/10 11:17:57;;;;;;;7.77;5.47;;;5.40;92.60;;;;;;5038916;28;20029;-61
2021/12/10 11:20:31;;;;;;;9.20;6.23;;;5.40;93.30;;;;;;5037805;28;20083;-61
2021/12/10 11:23:07;;;;;;;6.68;4.20;;;5.20;95.30;;;;;;5037395;28;20040;-62
2021/12/10 11:25:42;;;;;;;9.23;6.10;;;5.30;96.20;;;;;;5037413;28;20049;-61
2021/12/10 11:28:21;;;;;;;6.60;5.53;;;5.20;96.30;;;;;;5050690;28;20033;-61
2021/12/10 11:30:50;;;;;;;7.20;6.00;;;5.30;96.20;;;;;;5059777;28;20055;-61
2021/12/10 11:33:19;;;;;;;9.03;6.10;;;5.20;95.70;;;;;;5055692;28;20111;-60
2021/12/10 11:35:57;;;;;;;7.50;5.93;;;5.10;94.40;;;;;;5048584;28;20483;-60
2021/12/10 11:38:28;;;;;;;11.63;7.73;;;5.10;96.10;;;;;;5037222;28;20060;-60
2021/12/10 11:41:12;;;;;;;10.60;6.43;;;5.20;95.50;;;;;;5036207;28;20037;-61
2021/12/10 11:43:54;;;;;;;9.47;7.43;;;5.30;94.90;;;;;;5042069;28;20052;-61
2021/12/10 11:46:32;;;;;;;10.40;7.73;;;5.20;94.70;;;;;;5056623;28;20348;-61
2021/12/10 11:49:06;;;;;;;12.93;6.90;;;5.30;94.00;;;;;;5057165;28;20107;-61
2021/12/10 11:51:40;;;;;;;8.82;6.40;;;5.20;94.50;;;;;;5045617;28;20114;-61
2021/12/10 11:54:26;;;;;;;8.97;6.43;;;5.30;95.10;;;;;;5046040;28;20683;-61
2021/12/10 11:57:21;;;;;;;8.73;6.20;;;5.30;94.90;;;;;;5034265;28;20128;-62
2021/12/10 11:59:52;;;;;;;12.82;6.85;;;5.40;94.40;;;;;;5041996;28;20070;-61
2021/12/10 12:02:27;;;;;;;8.93;6.30;;;5.30;94.50;;;;;;5034913;28;20045;-61
2021/12/10 12:04:52;;;;;;;;;;;5.20;93.60;;;;;;5047735;28;20021;-61
2021/12/10 12:07:39;;;;;;;8.67;6.40;;;5.20;94.20;;;;;;5055240;28;19916;-61
2021/12/10 12:10:18;;;;;;;9.07;7.07;;;5.30;94.10;;;;;;5046147;28;20041;-61
2021/12/10 12:12:48;;;;;;;8.87;6.83;;;5.30;94.00;;;;;;5035204;28;20025;-62
2021/12/10 12:15:27;;;;;;;11.13;7.47;;;5.30;94.00;;;;;;5048279;28;20094;-61
2021/12/10 12:18:03;;;;;;;11.37;8.87;;;5.40;95.10;;;;;;5033943;28;20064;-61
2021/12/10 12:20:52;;;;;;;9.60;7.60;;;5.30;94.20;;;;;;5037754;28;20071;-62
2021/12/10 12:26:12;;;;;;;11.40;8.60;;;5.30;93.30;;;;;;5048549;28;20120;-62
2021/12/10 12:28:49;;;;;;;11.53;8.17;;;5.30;92.10;;;;;;5052709;28;20032;-61
2021/12/10 12:31:27;;;;;;;10.37;8.23;;;5.30;92.70;;;;;;5053908;28;20040;-61
2021/12/10 12:33:58;;;;;;;9.73;7.50;;;5.30;92.80;;;;;;5035018;28;20048;-62
2021/12/10 12:36:37;;;;;;;9.80;7.77;;;5.40;93.30;;;;;;5035004;28;20025;-61
2021/12/10 12:39:09;;;;;;;9.07;7.33;;;5.10;93.10;;;;;;5039594;28;20027;-61
2021/12/10 12:41:38;;;;;;;11.93;8.07;;;5.20;92.80;;;;;;5053704;28;20086;-62
2021/12/10 12:44:33;;;;;;;12.23;8.80;;;5.40;93.70;;;;;;5053083;28;20103;-58
2021/12/10 12:47:10;;;;;;;13.13;9.37;;;5.40;92.90;;;;;;5034718;28;20040;-77
2021/12/10 12:49:48;;;;;;;11.27;9.43;;;5.30;93.70;;;;;;5049642;28;20490;-75
2021/12/10 12:52:37;;;;;;;12.70;9.60;;;5.40;93.70;;;;;;5051786;28;20083;-76
2021/12/10 12:55:11;;;;;;;10.47;8.63;;;5.40;92.00;;;;;;5054379;28;20057;-70
2021/12/10 12:58:05;;;;;;;9.52;7.97;;;5.30;92.50;;;;;;5034713;28;20029;-69
2021/12/10 13:00:51;;;;;;;12.27;9.23;;;5.40;92.60;;;;;;5048022;28;20033;-67
2021/12/10 13:03:43;;;;;;;11.43;9.43;;;5.40;92.30;;;;;;5034065;28;20049;-67
2021/12/10 13:06:49;;;;;;;13.17;8.50;;;5.40;92.30;;;;;;5040752;28;20484;-68
2021/12/10 13:09:28;;;;;;;12.65;9.57;;;5.30;93.60;;;;;;5031327;28;20033;-69
2021/12/10 13:12:13;;;;;;;12.67;9.27;;;5.40;93.50;;;;;;5053105;28;20483;-68
2021/12/10 13:14:52;;;;;;;12.48;9.05;;;5.40;93.10;;;;;;5052678;28;20021;-64
2021/12/10 13:17:24;;;;;;;15.03;10.30;;;5.30;92.40;;;;;;5054031;28;20027;-68